sensor_id;sensor_type;location;lat;lon;timestamp;temperature;humidity
56137;DHT22;42008;52.934;5.884;2023-02-01T00:01:46;6.20;1.00
56137;DHT22;42008;52.934;5.884;2023-02-01T00:04:11;6.00;1.00
56137;DHT22;42008;52.934;5.884;2023-02-01T00:06:37;6.00;1.00
56137;DHT22;42008;52.934;5.884;2023-02-01T00:09:03;6.40;1.00
56137;DHT22;42008;52.934;5.884;2023-02-01T00:11:28;7.50;1.00
56137;DHT22;42008;52.934;5.884;2023-02-01T00:13:54;6.20;1.00
56137;DHT22;42008;52.934;5.884;2023-02-01T00:16:23;6.10;1.00
56137;DHT22;42008;52.934;5.884;2023-02-01T00:18:50;7.40;1.00
56137;DHT22;42008;52.934;5.884;2023-02-01T00:21:18;7.10;1.00
56137;DHT22;42008;52.934;5.884;2023-02-01T00:23:44;6.50;1.00
56137;DHT22;42008;52.934;5.884;2023-02-01T00:26:20;7.50;1.00
56137;DHT22;42008;52.934;5.884;2023-02-01T00:28:48;6.50;1.00
56137;DHT22;42008;52.934;5.884;2023-02-01T00:31:14;6.20;1.00
56137;DHT22;42008;52.934;5.884;2023-02-01T00:33:40;7.20;1.00
56137;DHT22;42008;52.934;5.884;2023-02-01T00:36:07;7.20;1.00
56137;DHT22;42008;52.934;5.884;2023-02-01T00:38:36;6.70;1.00
56137;DHT22;42008;52.934;5.884;2023-02-01T00:41:03;6.30;1.00
56137;DHT22;42008;52.934;5.884;2023-02-01T00:43:31;6.40;1.00
56137;DHT22;42008;52.934;5.884;2023-02-01T00:45:57;6.30;1.00
56137;DHT22;42008;52.934;5.884;2023-02-01T00:48:23;6.70;1.00
56137;DHT22;42008;52.934;5.884;2023-02-01T00:50:48;6.10;1.00
56137;DHT22;42008;52.934;5.884;2023-02-01T00:53:14;7.40;1.00
56137;DHT22;42008;52.934;5.884;2023-02-01T00:55:39;6.20;1.00
56137;DHT22;42008;52.934;5.884;2023-02-01T00:58:05;7.20;1.00
56137;DHT22;42008;52.934;5.884;2023-02-01T01:00:34;7.20;1.00
56137;DHT22;42008;52.934;5.884;2023-02-01T01:03:00;7.10;1.00
56137;DHT22;42008;52.934;5.884;2023-02-01T01:05:25;7.50;1.00
56137;DHT22;42008;52.934;5.884;2023-02-01T01:07:53;6.60;1.00
56137;DHT22;42008;52.934;5.884;2023-02-01T01:10:18;6.80;1.00
56137;DHT22;42008;52.934;5.884;2023-02-01T01:12:44;7.40;1.00
56137;DHT22;42008;52.934;5.884;2023-02-01T01:15:10;6.10;1.00
56137;DHT22;42008;52.934;5.884;2023-02-01T01:17:35;7.50;1.00
56137;DHT22;42008;52.934;5.884;2023-02-01T01:20:02;7.60;1.00
56137;DHT22;42008;52.934;5.884;2023-02-01T01:22:28;7.40;1.00
56137;DHT22;42008;52.934;5.884;2023-02-01T01:24:53;6.00;1.00
56137;DHT22;42008;52.934;5.884;2023-02-01T01:27:19;7.60;1.00
56137;DHT22;42008;52.934;5.884;2023-02-01T01:29:49;7.50;1.00
56137;DHT22;42008;52.934;5.884;2023-02-01T01:32:14;7.30;1.00
56137;DHT22;42008;52.934;5.884;2023-02-01T01:34:40;7.30;1.00
56137;DHT22;42008;52.934;5.884;2023-02-01T01:55:36;6.80;99.90
56137;DHT22;42008;52.934;5.884;2023-02-01T01:58:06;5.80;99.90
56137;DHT22;42008;52.934;5.884;2023-02-01T02:00:33;6.10;99.90
56137;DHT22;42008;52.934;5.884;2023-02-01T02:06:37;6.40;1.00
56137;DHT22;42008;52.934;5.884;2023-02-01T02:09:04;5.90;99.90
56137;DHT22;42008;52.934;5.884;2023-02-01T02:11:30;5.70;88.90
56137;DHT22;42008;52.934;5.884;2023-02-01T02:13:57;6.10;99.90
56137;DHT22;42008;52.934;5.884;2023-02-01T02:16:25;5.70;1.00
56137;DHT22;42008;52.934;5.884;2023-02-01T02:21:48;5.90;1.00
56137;DHT22;42008;52.934;5.884;2023-02-01T02:25:35;5.90;1.00
56137;DHT22;42008;52.934;5.884;2023-02-01T02:41:39;5.90;99.90
56137;DHT22;42008;52.934;5.884;2023-02-01T02:44:49;6.80;99.90
56137;DHT22;42008;52.934;5.884;2023-02-01T02:50:26;6.60;99.90
56137;DHT22;42008;52.934;5.884;2023-02-01T02:53:14;6.50;99.90
56137;DHT22;42008;52.934;5.884;2023-02-01T02:55:59;6.70;99.90
56137;DHT22;42008;52.934;5.884;2023-02-01T02:58:45;7.40;1.00
56137;DHT22;42008;52.934;5.884;2023-02-01T03:01:30;7.40;1.00
56137;DHT22;42008;52.934;5.884;2023-02-01T03:04:16;6.40;1.00
56137;DHT22;42008;52.934;5.884;2023-02-01T03:06:43;6.10;1.00
56137;DHT22;42008;52.934;5.884;2023-02-01T03:09:41;6.10;1.00
56137;DHT22;42008;52.934;5.884;2023-02-01T03:12:12;6.20;1.00
56137;DHT22;42008;52.934;5.884;2023-02-01T03:15:11;6.20;99.90
56137;DHT22;42008;52.934;5.884;2023-02-01T03:17:40;6.50;1.00
56137;DHT22;42008;52.934;5.884;2023-02-01T03:20:08;6.70;1.00
56137;DHT22;42008;52.934;5.884;2023-02-01T03:22:38;6.50;99.90
56137;DHT22;42008;52.934;5.884;2023-02-01T03:25:18;7.50;99.90
56137;DHT22;42008;52.934;5.884;2023-02-01T03:27:53;6.60;1.00
56137;DHT22;42008;52.934;5.884;2023-02-01T03:30:26;7.20;99.90
56137;DHT22;42008;52.934;5.884;2023-02-01T03:32:59;6.30;99.90
56137;DHT22;42008;52.934;5.884;2023-02-01T03:35:44;6.00;99.90
56137;DHT22;42008;52.934;5.884;2023-02-01T03:38:51;7.20;99.90
56137;DHT22;42008;52.934;5.884;2023-02-01T03:41:28;6.60;99.90
56137;DHT22;42008;52.934;5.884;2023-02-01T03:46:54;6.40;99.90
56137;DHT22;42008;52.934;5.884;2023-02-01T03:49:30;6.60;99.90
56137;DHT22;42008;52.934;5.884;2023-02-01T03:51:58;7.80;99.90
56137;DHT22;42008;52.934;5.884;2023-02-01T03:54:26;7.20;99.90
56137;DHT22;42008;52.934;5.884;2023-02-01T03:56:54;6.10;99.90
56137;DHT22;42008;52.934;5.884;2023-02-01T03:59:20;6.00;99.90
56137;DHT22;42008;52.934;5.884;2023-02-01T04:01:46;7.60;99.90
56137;DHT22;42008;52.934;5.884;2023-02-01T04:04:12;7.00;99.90
56137;DHT22;42008;52.934;5.884;2023-02-01T04:06:49;6.20;99.90
56137;DHT22;42008;52.934;5.884;2023-02-01T04:09:14;7.10;99.90
56137;DHT22;42008;52.934;5.884;2023-02-01T04:11:40;7.40;99.90
56137;DHT22;42008;52.934;5.884;2023-02-01T04:14:06;6.90;99.90
56137;DHT22;42008;52.934;5.884;2023-02-01T04:16:32;7.00;99.90
56137;DHT22;42008;52.934;5.884;2023-02-01T04:18:58;6.30;99.90
56137;DHT22;42008;52.934;5.884;2023-02-01T04:21:25;7.70;99.90
56137;DHT22;42008;52.934;5.884;2023-02-01T04:23:51;6.50;99.90
56137;DHT22;42008;52.934;5.884;2023-02-01T04:26:17;6.40;99.90
56137;DHT22;42008;52.934;5.884;2023-02-01T04:28:44;6.30;99.90
56137;DHT22;42008;52.934;5.884;2023-02-01T04:31:09;7.60;99.90
56137;DHT22;42008;52.934;5.884;2023-02-01T04:33:35;7.50;99.90
56137;DHT22;42008;52.934;5.884;2023-02-01T04:36:00;7.00;99.90
56137;DHT22;42008;52.934;5.884;2023-02-01T04:38:26;6.10;99.90
56137;DHT22;42008;52.934;5.884;2023-02-01T04:40:54;7.50;99.90
56137;DHT22;42008;52.934;5.884;2023-02-01T04:43:20;6.10;99.90
56137;DHT22;42008;52.934;5.884;2023-02-01T04:45:49;6.10;99.90
56137;DHT22;42008;52.934;5.884;2023-02-01T04:48:16;6.90;99.90
56137;DHT22;42008;52.934;5.884;2023-02-01T04:50:43;6.00;99.90
56137;DHT22;42008;52.934;5.884;2023-02-01T04:53:11;7.20;99.90
56137;DHT22;42008;52.934;5.884;2023-02-01T04:55:36;6.10;99.90
56137;DHT22;42008;52.934;5.884;2023-02-01T04:58:02;6.20;99.90
56137;DHT22;42008;52.934;5.884;2023-02-01T05:00:27;6.30;99.90
56137;DHT22;42008;52.934;5.884;2023-02-01T05:02:53;6.10;99.90
56137;DHT22;42008;52.934;5.884;2023-02-01T05:05:19;7.60;99.90
56137;DHT22;42008;52.934;5.884;2023-02-01T05:07:45;6.30;99.90
56137;DHT22;42008;52.934;5.884;2023-02-01T05:10:11;6.30;99.90
56137;DHT22;42008;52.934;5.884;2023-02-01T05:12:36;6.30;99.90
56137;DHT22;42008;52.934;5.884;2023-02-01T05:15:20;7.30;99.90
56137;DHT22;42008;52.934;5.884;2023-02-01T05:17:46;7.40;99.90
56137;DHT22;42008;52.934;5.884;2023-02-01T05:20:11;6.60;99.90
56137;DHT22;42008;52.934;5.884;2023-02-01T05:22:37;6.50;99.90
56137;DHT22;42008;52.934;5.884;2023-02-01T05:25:03;6.10;99.90
56137;DHT22;42008;52.934;5.884;2023-02-01T05:27:30;6.60;99.90
56137;DHT22;42008;52.934;5.884;2023-02-01T05:29:55;6.20;99.90
56137;DHT22;42008;52.934;5.884;2023-02-01T05:32:21;7.60;99.90
56137;DHT22;42008;52.934;5.884;2023-02-01T05:34:47;6.20;99.90
56137;DHT22;42008;52.934;5.884;2023-02-01T05:37:12;6.20;99.90
56137;DHT22;42008;52.934;5.884;2023-02-01T05:39:38;7.30;99.90
56137;DHT22;42008;52.934;5.884;2023-02-01T05:42:03;6.20;99.90
56137;DHT22;42008;52.934;5.884;2023-02-01T05:44:29;6.80;99.90
56137;DHT22;42008;52.934;5.884;2023-02-01T05:46:54;7.70;99.90
56137;DHT22;42008;52.934;5.884;2023-02-01T05:49:20;7.40;99.90
56137;DHT22;42008;52.934;5.884;2023-02-01T05:51:46;6.30;99.90
56137;DHT22;42008;52.934;5.884;2023-02-01T05:54:11;7.50;99.90
56137;DHT22;42008;52.934;5.884;2023-02-01T05:56:37;6.90;99.90
56137;DHT22;42008;52.934;5.884;2023-02-01T05:59:02;6.10;99.90
56137;DHT22;42008;52.934;5.884;2023-02-01T06:01:28;6.00;99.90
56137;DHT22;42008;52.934;5.884;2023-02-01T06:03:53;7.20;99.90
56137;DHT22;42008;52.934;5.884;2023-02-01T06:06:19;6.70;99.90
56137;DHT22;42008;52.934;5.884;2023-02-01T06:08:45;6.20;99.90
56137;DHT22;42008;52.934;5.884;2023-02-01T06:11:11;6.10;99.90
56137;DHT22;42008;52.934;5.884;2023-02-01T06:13:38;6.00;99.90
56137;DHT22;42008;52.934;5.884;2023-02-01T06:16:04;6.30;99.90
56137;DHT22;42008;52.934;5.884;2023-02-01T06:18:32;6.70;99.90
56137;DHT22;42008;52.934;5.884;2023-02-01T06:20:59;6.20;99.90
56137;DHT22;42008;52.934;5.884;2023-02-01T06:23:28;6.30;99.90
56137;DHT22;42008;52.934;5.884;2023-02-01T06:26:02;6.70;99.90
56137;DHT22;42008;52.934;5.884;2023-02-01T06:28:30;6.20;99.90
56137;DHT22;42008;52.934;5.884;2023-02-01T06:30:56;6.30;99.90
56137;DHT22;42008;52.934;5.884;2023-02-01T06:33:23;7.50;99.90
56137;DHT22;42008;52.934;5.884;2023-02-01T06:35:49;6.30;99.90
56137;DHT22;42008;52.934;5.884;2023-02-01T06:38:21;6.10;99.90
56137;DHT22;42008;52.934;5.884;2023-02-01T06:40:52;7.30;99.90
56137;DHT22;42008;52.934;5.884;2023-02-01T06:43:18;6.20;99.90
56137;DHT22;42008;52.934;5.884;2023-02-01T06:45:43;6.10;99.90
56137;DHT22;42008;52.934;5.884;2023-02-01T06:48:09;6.20;99.90
56137;DHT22;42008;52.934;5.884;2023-02-01T06:50:34;6.40;99.90
56137;DHT22;42008;52.934;5.884;2023-02-01T06:53:00;6.10;99.90
56137;DHT22;42008;52.934;5.884;2023-02-01T06:55:26;7.50;99.90
56137;DHT22;42008;52.934;5.884;2023-02-01T06:57:55;6.20;99.90
56137;DHT22;42008;52.934;5.884;2023-02-01T07:00:24;6.00;99.90
56137;DHT22;42008;52.934;5.884;2023-02-01T07:02:50;6.70;99.90
56137;DHT22;42008;52.934;5.884;2023-02-01T07:05:16;6.00;99.90
56137;DHT22;42008;52.934;5.884;2023-02-01T07:07:42;6.10;99.90
56137;DHT22;42008;52.934;5.884;2023-02-01T07:10:08;6.10;99.90
56137;DHT22;42008;52.934;5.884;2023-02-01T07:12:34;7.00;99.90
56137;DHT22;42008;52.934;5.884;2023-02-01T07:15:00;6.20;99.90
56137;DHT22;42008;52.934;5.884;2023-02-01T07:17:27;6.10;99.90
56137;DHT22;42008;52.934;5.884;2023-02-01T07:19:55;6.10;1.00
56137;DHT22;42008;52.934;5.884;2023-02-01T07:22:21;7.20;1.00
56137;DHT22;42008;52.934;5.884;2023-02-01T07:24:46;7.20;1.00
56137;DHT22;42008;52.934;5.884;2023-02-01T07:27:12;7.40;1.00
56137;DHT22;42008;52.934;5.884;2023-02-01T07:29:37;7.20;1.00
56137;DHT22;42008;52.934;5.884;2023-02-01T07:32:03;6.20;99.90
56137;DHT22;42008;52.934;5.884;2023-02-01T07:34:29;6.10;99.90
56137;DHT22;42008;52.934;5.884;2023-02-01T07:36:56;5.90;99.90
56137;DHT22;42008;52.934;5.884;2023-02-01T07:39:22;5.80;99.90
56137;DHT22;42008;52.934;5.884;2023-02-01T07:41:47;6.00;99.90
56137;DHT22;42008;52.934;5.884;2023-02-01T07:44:13;7.30;99.90
56137;DHT22;42008;52.934;5.884;2023-02-01T07:46:39;5.90;99.90
56137;DHT22;42008;52.934;5.884;2023-02-01T07:49:05;5.80;99.90
56137;DHT22;42008;52.934;5.884;2023-02-01T07:51:30;6.30;1.00
56137;DHT22;42008;52.934;5.884;2023-02-01T07:53:56;6.10;99.90
56137;DHT22;42008;52.934;5.884;2023-02-01T07:56:22;6.30;99.90
56137;DHT22;42008;52.934;5.884;2023-02-01T07:58:52;6.10;99.90
56137;DHT22;42008;52.934;5.884;2023-02-01T08:01:21;6.50;1.00
56137;DHT22;42008;52.934;5.884;2023-02-01T08:04:00;5.90;1.00
56137;DHT22;42008;52.934;5.884;2023-02-01T08:06:29;6.10;1.00
56137;DHT22;42008;52.934;5.884;2023-02-01T08:08:56;6.10;99.90
56137;DHT22;42008;52.934;5.884;2023-02-01T08:11:23;6.30;1.00
56137;DHT22;42008;52.934;5.884;2023-02-01T08:13:49;6.00;99.90
56137;DHT22;42008;52.934;5.884;2023-02-01T08:16:16;7.60;99.90
56137;DHT22;42008;52.934;5.884;2023-02-01T08:18:43;6.20;1.00
56137;DHT22;42008;52.934;5.884;2023-02-01T08:23:36;6.30;1.00
56137;DHT22;42008;52.934;5.884;2023-02-01T08:26:11;7.20;1.00
56137;DHT22;42008;52.934;5.884;2023-02-01T08:28:39;6.00;99.90
56137;DHT22;42008;52.934;5.884;2023-02-01T08:31:07;6.90;99.90
56137;DHT22;42008;52.934;5.884;2023-02-01T08:33:33;6.30;99.90
56137;DHT22;42008;52.934;5.884;2023-02-01T08:36:01;7.30;99.90
56137;DHT22;42008;52.934;5.884;2023-02-01T08:38:27;6.70;99.90
56137;DHT22;42008;52.934;5.884;2023-02-01T08:40:52;7.50;99.90
56137;DHT22;42008;52.934;5.884;2023-02-01T08:43:18;7.70;99.90
56137;DHT22;42008;52.934;5.884;2023-02-01T08:45:44;7.40;99.90
56137;DHT22;42008;52.934;5.884;2023-02-01T08:48:10;7.50;99.90
56137;DHT22;42008;52.934;5.884;2023-02-01T08:50:35;7.10;99.90
56137;DHT22;42008;52.934;5.884;2023-02-01T08:53:01;7.40;99.90
56137;DHT22;42008;52.934;5.884;2023-02-01T08:55:26;7.70;99.90
56137;DHT22;42008;52.934;5.884;2023-02-01T08:57:53;7.70;99.90
56137;DHT22;42008;52.934;5.884;2023-02-01T09:00:18;7.60;99.90
56137;DHT22;42008;52.934;5.884;2023-02-01T09:02:44;6.80;99.90
56137;DHT22;42008;52.934;5.884;2023-02-01T09:05:13;7.50;99.90
56137;DHT22;42008;52.934;5.884;2023-02-01T09:07:40;7.20;99.90
56137;DHT22;42008;52.934;5.884;2023-02-01T09:10:06;6.00;99.90
56137;DHT22;42008;52.934;5.884;2023-02-01T09:12:32;7.20;99.90
56137;DHT22;42008;52.934;5.884;2023-02-01T09:14:59;7.50;99.90
56137;DHT22;42008;52.934;5.884;2023-02-01T09:17:26;6.20;99.90
56137;DHT22;42008;52.934;5.884;2023-02-01T09:19:52;7.50;99.90
56137;DHT22;42008;52.934;5.884;2023-02-01T09:22:18;7.30;99.90
56137;DHT22;42008;52.934;5.884;2023-02-01T09:24:43;7.50;99.90
56137;DHT22;42008;52.934;5.884;2023-02-01T09:27:09;7.50;99.90
56137;DHT22;42008;52.934;5.884;2023-02-01T09:29:35;6.30;99.90
56137;DHT22;42008;52.934;5.884;2023-02-01T09:32:00;6.60;99.90
56137;DHT22;42008;52.934;5.884;2023-02-01T09:34:26;7.50;99.90
56137;DHT22;42008;52.934;5.884;2023-02-01T09:36:52;7.30;99.90
56137;DHT22;42008;52.934;5.884;2023-02-01T09:39:17;7.20;99.90
56137;DHT22;42008;52.934;5.884;2023-02-01T09:44:42;6.70;99.90
56137;DHT22;42008;52.934;5.884;2023-02-01T09:47:16;8.10;99.90
56137;DHT22;42008;52.934;5.884;2023-02-01T09:50:02;7.80;99.90
56137;DHT22;42008;52.934;5.884;2023-02-01T09:52:46;7.00;99.90
56137;DHT22;42008;52.934;5.884;2023-02-01T09:55:18;6.90;99.90
56137;DHT22;42008;52.934;5.884;2023-02-01T09:57:59;7.20;99.90
56137;DHT22;42008;52.934;5.884;2023-02-01T10:00:29;7.70;99.90
56137;DHT22;42008;52.934;5.884;2023-02-01T10:02:56;7.70;99.90
56137;DHT22;42008;52.934;5.884;2023-02-01T10:08:24;6.90;99.90
56137;DHT22;42008;52.934;5.884;2023-02-01T10:10:53;7.30;99.90
56137;DHT22;42008;52.934;5.884;2023-02-01T10:13:38;7.60;99.90
56137;DHT22;42008;52.934;5.884;2023-02-01T10:24:28;6.90;99.90
56137;DHT22;42008;52.934;5.884;2023-02-01T10:27:21;6.60;99.90
56137;DHT22;42008;52.934;5.884;2023-02-01T10:29:55;7.20;99.90
56137;DHT22;42008;52.934;5.884;2023-02-01T10:32:24;7.10;99.90
56137;DHT22;42008;52.934;5.884;2023-02-01T10:34:58;7.80;99.90
56137;DHT22;42008;52.934;5.884;2023-02-01T10:37:30;7.60;99.90
56137;DHT22;42008;52.934;5.884;2023-02-01T10:40:00;7.70;99.90
56137;DHT22;42008;52.934;5.884;2023-02-01T10:42:28;7.50;99.90
56137;DHT22;42008;52.934;5.884;2023-02-01T10:44:59;7.30;99.90
56137;DHT22;42008;52.934;5.884;2023-02-01T10:47:25;6.50;99.90
56137;DHT22;42008;52.934;5.884;2023-02-01T10:52:58;7.50;99.90
56137;DHT22;42008;52.934;5.884;2023-02-01T10:58:04;7.00;99.90
56137;DHT22;42008;52.934;5.884;2023-02-01T11:00:47;7.30;99.90
56137;DHT22;42008;52.934;5.884;2023-02-01T11:03:39;6.80;99.90
56137;DHT22;42008;52.934;5.884;2023-02-01T11:08:53;7.50;99.90
56137;DHT22;42008;52.934;5.884;2023-02-01T11:11:20;7.30;99.90
56137;DHT22;42008;52.934;5.884;2023-02-01T11:13:53;7.20;99.90
56137;DHT22;42008;52.934;5.884;2023-02-01T11:16:19;8.10;99.90
56137;DHT22;42008;52.934;5.884;2023-02-01T11:18:44;7.40;99.90
56137;DHT22;42008;52.934;5.884;2023-02-01T11:21:11;7.20;99.90
56137;DHT22;42008;52.934;5.884;2023-02-01T11:23:42;7.40;99.90
56137;DHT22;42008;52.934;5.884;2023-02-01T11:26:12;6.10;99.90
56137;DHT22;42008;52.934;5.884;2023-02-01T11:28:44;7.50;1.00
56137;DHT22;42008;52.934;5.884;2023-02-01T11:31:13;7.10;99.90
56137;DHT22;42008;52.934;5.884;2023-02-01T11:33:48;6.10;45.70
56137;DHT22;42008;52.934;5.884;2023-02-01T11:36:21;6.00;1.00
56137;DHT22;42008;52.934;5.884;2023-02-01T11:39:28;6.00;1.00
56137;DHT22;42008;52.934;5.884;2023-02-01T11:47:31;6.50;99.90
56137;DHT22;42008;52.934;5.884;2023-02-01T11:50:14;6.70;99.90
56137;DHT22;42008;52.934;5.884;2023-02-01T12:06:04;6.80;99.90
56137;DHT22;42008;52.934;5.884;2023-02-01T12:11:42;6.80;93.90
56137;DHT22;42008;52.934;5.884;2023-02-01T12:14:31;6.70;99.90
56137;DHT22;42008;52.934;5.884;2023-02-01T12:25:30;7.20;1.00
56137;DHT22;42008;52.934;5.884;2023-02-01T12:34:28;7.20;99.90
56137;DHT22;42008;52.934;5.884;2023-02-01T12:37:51;6.60;99.90
56137;DHT22;42008;52.934;5.884;2023-02-01T12:43:01;7.90;99.90
56137;DHT22;42008;52.934;5.884;2023-02-01T12:46:13;8.90;22.70
56137;DHT22;42008;52.934;5.884;2023-02-01T12:49:22;8.30;1.00
56137;DHT22;42008;52.934;5.884;2023-02-01T12:51:53;7.10;1.00
56137;DHT22;42008;52.934;5.884;2023-02-01T12:54:24;8.70;1.00
56137;DHT22;42008;52.934;5.884;2023-02-01T12:57:06;7.40;1.00
56137;DHT22;42008;52.934;5.884;2023-02-01T12:59:37;8.10;1.00
56137;DHT22;42008;52.934;5.884;2023-02-01T13:07:30;8.30;99.90
56137;DHT22;42008;52.934;5.884;2023-02-01T13:10:07;8.80;1.00
56137;DHT22;42008;52.934;5.884;2023-02-01T13:12:41;8.50;99.90
56137;DHT22;42008;52.934;5.884;2023-02-01T13:15:16;9.50;99.90
56137;DHT22;42008;52.934;5.884;2023-02-01T13:17:44;9.20;99.90
56137;DHT22;42008;52.934;5.884;2023-02-01T13:20:48;9.50;99.90
56137;DHT22;42008;52.934;5.884;2023-02-01T13:23:28;9.40;45.70
56137;DHT22;42008;52.934;5.884;2023-02-01T13:25:55;9.20;64.00
56137;DHT22;42008;52.934;5.884;2023-02-01T13:28:44;9.50;29.40
56137;DHT22;42008;52.934;5.884;2023-02-01T13:44:52;10.10;31.00
56137;DHT22;42008;52.934;5.884;2023-02-01T13:47:34;10.60;1.00
56137;DHT22;42008;52.934;5.884;2023-02-01T13:50:25;10.20;1.00
56137;DHT22;42008;52.934;5.884;2023-02-01T13:53:00;9.80;1.00
56137;DHT22;42008;52.934;5.884;2023-02-01T13:55:31;9.30;67.50
56137;DHT22;42008;52.934;5.884;2023-02-01T13:58:20;9.10;56.00
56137;DHT22;42008;52.934;5.884;2023-02-01T14:00:47;9.40;29.20
56137;DHT22;42008;52.934;5.884;2023-02-01T14:03:17;9.30;1.00
56137;DHT22;42008;52.934;5.884;2023-02-01T14:08:24;9.10;99.90
56137;DHT22;42008;52.934;5.884;2023-02-01T14:11:00;8.70;99.90
56137;DHT22;42008;52.934;5.884;2023-02-01T14:13:36;8.80;99.90
56137;DHT22;42008;52.934;5.884;2023-02-01T14:21:19;9.30;30.20
56137;DHT22;42008;52.934;5.884;2023-02-01T14:26:45;10.10;1.00
56137;DHT22;42008;52.934;5.884;2023-02-01T14:31:44;10.40;1.00
56137;DHT22;42008;52.934;5.884;2023-02-01T14:37:05;10.30;1.00
56137;DHT22;42008;52.934;5.884;2023-02-01T14:39:36;10.80;1.00
56137;DHT22;42008;52.934;5.884;2023-02-01T14:42:24;10.90;1.00
56137;DHT22;42008;52.934;5.884;2023-02-01T14:44:52;9.30;1.00
56137;DHT22;42008;52.934;5.884;2023-02-01T14:50:11;9.10;1.00
56137;DHT22;42008;52.934;5.884;2023-02-01T14:52:44;9.20;53.50
56137;DHT22;42008;52.934;5.884;2023-02-01T14:55:37;8.60;99.90
56137;DHT22;42008;52.934;5.884;2023-02-01T15:01:05;8.50;99.90
56137;DHT22;42008;52.934;5.884;2023-02-01T15:08:54;9.20;90.20
56137;DHT22;42008;52.934;5.884;2023-02-01T15:11:20;8.70;99.90
56137;DHT22;42008;52.934;5.884;2023-02-01T15:13:50;9.20;53.10
56137;DHT22;42008;52.934;5.884;2023-02-01T15:16:19;9.00;26.70
56137;DHT22;42008;52.934;5.884;2023-02-01T15:18:44;8.70;97.60
56137;DHT22;42008;52.934;5.884;2023-02-01T15:21:17;9.00;99.90
56137;DHT22;42008;52.934;5.884;2023-02-01T15:23:43;8.60;99.90
56137;DHT22;42008;52.934;5.884;2023-02-01T15:26:13;9.30;99.90
56137;DHT22;42008;52.934;5.884;2023-02-01T15:28:49;9.20;99.90
56137;DHT22;42008;52.934;5.884;2023-02-01T15:31:14;8.70;99.90
56137;DHT22;42008;52.934;5.884;2023-02-01T15:33:57;8.60;99.90
56137;DHT22;42008;52.934;5.884;2023-02-01T15:36:22;7.80;99.90
56137;DHT22;42008;52.934;5.884;2023-02-01T15:41:49;8.30;99.90
56137;DHT22;42008;52.934;5.884;2023-02-01T15:44:38;8.90;99.90
56137;DHT22;42008;52.934;5.884;2023-02-01T15:47:11;8.10;99.90
56137;DHT22;42008;52.934;5.884;2023-02-01T15:49:40;7.20;99.90
56137;DHT22;42008;52.934;5.884;2023-02-01T15:52:37;8.00;99.90
56137;DHT22;42008;52.934;5.884;2023-02-01T15:55:36;7.60;99.90
56137;DHT22;42008;52.934;5.884;2023-02-01T15:58:20;8.20;99.90
56137;DHT22;42008;52.934;5.884;2023-02-01T16:00:50;7.80;99.90
56137;DHT22;42008;52.934;5.884;2023-02-01T16:06:03;8.00;99.90
56137;DHT22;42008;52.934;5.884;2023-02-01T16:08:30;7.50;99.90
56137;DHT22;42008;52.934;5.884;2023-02-01T16:13:33;7.40;1.00
56137;DHT22;42008;52.934;5.884;2023-02-01T16:15:59;7.20;1.00
56137;DHT22;42008;52.934;5.884;2023-02-01T16:18:24;7.40;1.00
56137;DHT22;42008;52.934;5.884;2023-02-01T16:20:50;7.20;1.00
56137;DHT22;42008;52.934;5.884;2023-02-01T16:23:15;7.20;1.00
56137;DHT22;42008;52.934;5.884;2023-02-01T16:25:41;7.70;1.00
56137;DHT22;42008;52.934;5.884;2023-02-01T16:28:07;7.70;1.00
56137;DHT22;42008;52.934;5.884;2023-02-01T16:30:33;7.50;1.00
56137;DHT22;42008;52.934;5.884;2023-02-01T16:33:00;6.20;1.00
56137;DHT22;42008;52.934;5.884;2023-02-01T16:35:32;7.30;1.00
56137;DHT22;42008;52.934;5.884;2023-02-01T16:38:16;7.60;1.00
56137;DHT22;42008;52.934;5.884;2023-02-01T16:40:44;7.10;1.00
56137;DHT22;42008;52.934;5.884;2023-02-01T16:43:21;7.60;18.80
56137;DHT22;42008;52.934;5.884;2023-02-01T16:45:48;6.60;99.90
56137;DHT22;42008;52.934;5.884;2023-02-01T16:48:25;7.50;99.90
56137;DHT22;42008;52.934;5.884;2023-02-01T16:50:57;6.60;99.90
56137;DHT22;42008;52.934;5.884;2023-02-01T16:53:24;6.40;99.90
56137;DHT22;42008;52.934;5.884;2023-02-01T16:55:50;7.60;93.30
56137;DHT22;42008;52.934;5.884;2023-02-01T16:58:18;7.30;99.90
56137;DHT22;42008;52.934;5.884;2023-02-01T17:00:45;7.40;99.90
56137;DHT22;42008;52.934;5.884;2023-02-01T17:03:11;6.80;99.90
56137;DHT22;42008;52.934;5.884;2023-02-01T17:05:43;6.10;99.90
56137;DHT22;42008;52.934;5.884;2023-02-01T17:08:13;7.30;99.90
56137;DHT22;42008;52.934;5.884;2023-02-01T17:10:40;7.10;99.90
56137;DHT22;42008;52.934;5.884;2023-02-01T17:13:11;6.70;99.90
56137;DHT22;42008;52.934;5.884;2023-02-01T17:15:38;6.80;99.90
56137;DHT22;42008;52.934;5.884;2023-02-01T17:18:04;6.70;99.90
56137;DHT22;42008;52.934;5.884;2023-02-01T17:20:31;6.70;99.90
56137;DHT22;42008;52.934;5.884;2023-02-01T17:22:57;5.90;99.90
56137;DHT22;42008;52.934;5.884;2023-02-01T17:25:23;6.00;99.90
56137;DHT22;42008;52.934;5.884;2023-02-01T17:27:51;5.90;99.90
56137;DHT22;42008;52.934;5.884;2023-02-01T17:30:17;6.20;99.90
56137;DHT22;42008;52.934;5.884;2023-02-01T17:32:43;6.30;99.90
56137;DHT22;42008;52.934;5.884;2023-02-01T17:35:19;6.70;99.90
56137;DHT22;42008;52.934;5.884;2023-02-01T17:37:46;7.10;99.90
56137;DHT22;42008;52.934;5.884;2023-02-01T17:40:12;7.20;99.90
56137;DHT22;42008;52.934;5.884;2023-02-01T17:42:41;6.60;1.00
56137;DHT22;42008;52.934;5.884;2023-02-01T17:45:32;6.20;1.00
56137;DHT22;42008;52.934;5.884;2023-02-01T17:47:58;6.40;1.00
56137;DHT22;42008;52.934;5.884;2023-02-01T17:50:26;5.80;1.00
56137;DHT22;42008;52.934;5.884;2023-02-01T17:52:52;5.70;1.00
56137;DHT22;42008;52.934;5.884;2023-02-01T17:55:19;7.10;1.00
56137;DHT22;42008;52.934;5.884;2023-02-01T17:57:48;6.00;1.00
56137;DHT22;42008;52.934;5.884;2023-02-01T18:00:14;6.20;1.00
56137;DHT22;42008;52.934;5.884;2023-02-01T18:02:41;6.90;1.00
56137;DHT22;42008;52.934;5.884;2023-02-01T18:05:26;6.50;1.00
56137;DHT22;42008;52.934;5.884;2023-02-01T18:07:52;6.60;1.00
56137;DHT22;42008;52.934;5.884;2023-02-01T18:10:18;6.10;1.00
56137;DHT22;42008;52.934;5.884;2023-02-01T18:12:44;6.20;1.00
56137;DHT22;42008;52.934;5.884;2023-02-01T18:15:16;7.00;1.00
56137;DHT22;42008;52.934;5.884;2023-02-01T18:17:42;7.00;1.00
56137;DHT22;42008;52.934;5.884;2023-02-01T18:20:15;7.50;1.00
56137;DHT22;42008;52.934;5.884;2023-02-01T18:22:42;6.50;99.90
56137;DHT22;42008;52.934;5.884;2023-02-01T18:25:18;6.40;99.90
56137;DHT22;42008;52.934;5.884;2023-02-01T18:27:46;6.60;99.90
56137;DHT22;42008;52.934;5.884;2023-02-01T18:30:12;6.40;99.90
56137;DHT22;42008;52.934;5.884;2023-02-01T18:32:39;6.90;99.90
56137;DHT22;42008;52.934;5.884;2023-02-01T18:35:21;5.80;1.00
56137;DHT22;42008;52.934;5.884;2023-02-01T18:37:48;6.20;99.90
56137;DHT22;42008;52.934;5.884;2023-02-01T18:40:16;5.80;1.00
56137;DHT22;42008;52.934;5.884;2023-02-01T18:42:42;6.30;99.90
56137;DHT22;42008;52.934;5.884;2023-02-01T18:45:30;6.40;99.90
56137;DHT22;42008;52.934;5.884;2023-02-01T18:47:59;6.90;99.90
56137;DHT22;42008;52.934;5.884;2023-02-01T18:50:29;5.90;99.90
56137;DHT22;42008;52.934;5.884;2023-02-01T18:52:57;6.40;99.90
56137;DHT22;42008;52.934;5.884;2023-02-01T18:55:23;5.90;14.30